KMSY

Louis Armstrong New Orleans International Airport

New Orleans, Louisiana, USA
KMSY 241131Z 2412/2518 12004KT P6SM FEW020 SCT080 BKN250 FM241600 17005KT P6SM VCSH SCT025 BKN120 TEMPO 2417/2421 4SM TSRA BKN025CB BKN030 FM242100 16007KT P6SM VCTS SCT035CB BKN050 FM250000 17005KT P6SM SCT035 OVC140 FM250700 17010KT P6SM VCSH SCT022 BKN120
Issued Valid From Valid To
Sep-24 @ 11:31 UTC
(2 hours ago)
Sep-24 @ 12:00 UTC
(2 hours ago)
Sep-25 @ 18:00 UTC
(-1 days ago)
Sep-24 @ 12:00 to Sep-24 @ 16:00
KMSY 241131Z 2412/2518 12004KT P6SM FEW020 SCT080 BKN250
Wind Visibility Clouds
120° at 4 knots Greater than 6 miles
  • Few at 2,000' AGL
  • Scattered at 8,000' AGL
  • Broken at 25,000' AGL
From Sep-24 @ 16:00 to Sep-24 @ 21:00
FM241600 17005KT P6SM VCSH SCT025 BKN120
Wind Visibility Clouds
170° at 5 knots Greater than 6 miles
  • Scattered at 2,500' AGL
  • Broken at 12,000' AGL
Temporary Sep-24 @ 17:00 to Sep-24 @ 21:00
TEMPO 2417/2421 4SM TSRA BKN025CB BKN030
Visibility Clouds Conditions
4 miles
  • Broken at 2,500' AGL
  • Broken at 3,000' AGL
  • Thunderstorm
  • Rain
From Sep-24 @ 21:00 to Sep-25 @ 00:00
FM242100 16007KT P6SM VCTS SCT035CB BKN050
Wind Visibility Clouds Conditions
160° at 7 knots Greater than 6 miles
  • Scattered at 3,500' AGL
  • Broken at 5,000' AGL
  • Area Thunderstorm
From Sep-25 @ 00:00 to Sep-25 @ 07:00
FM250000 17005KT P6SM SCT035 OVC140
Wind Visibility Clouds
170° at 5 knots Greater than 6 miles
  • Scattered at 3,500' AGL
  • Overcast at 14,000' AGL
From Sep-25 @ 07:00 to Sep-25 @ 18:00
FM250700 17010KT P6SM VCSH SCT022 BKN120
Wind Visibility Clouds
170° at 10 knots Greater than 6 miles
  • Scattered at 2,200' AGL
  • Broken at 12,000' AGL
KMSY 241131Z 2412/2518 12004KT P6SM FEW020 SCT080 BKN250 FM241600 17005KT P6SM VCSH SCT025 BKN120 TEMPO 2417/2421 4SM TSRA BKN025CB BKN030 FM242100 16007KT P6SM VCTS SCT035CB BKN050 FM250000 17005KT P6SM SCT035 OVC140 FM250700 17010KT P6SM VCSH SCT022 BKN120
Issued Sep-24 @ 11:31 UTC
(2 hours ago)
Valid From Sep-24 @ 12:00 UTC
(2 hours ago)
Valid To Sep-25 @ 18:00 UTC
(-1 days ago)
Sep-24 @ 12:00 - Sep-24 @ 16:00
Wind Visibility
120° at 4 knots Greater than 6 miles
Clouds
  • Few at 2,000' AGL
  • Scattered at 8,000' AGL
  • Broken at 25,000' AGL
From Sep-24 @ 16:00 - Sep-24 @ 21:00
Wind Visibility
170° at 5 knots Greater than 6 miles
Clouds
  • Scattered at 2,500' AGL
  • Broken at 12,000' AGL
Temporary Sep-24 @ 17:00 - Sep-24 @ 21:00
Clouds
  • Broken at 2,500' AGL
  • Broken at 3,000' AGL
Conditions
  • Thunderstorm
  • Rain
From Sep-24 @ 21:00 - Sep-25 @ 00:00
Wind Visibility
160° at 7 knots Greater than 6 miles
Clouds
  • Scattered at 3,500' AGL
  • Broken at 5,000' AGL
Conditions
  • Area Thunderstorm
From Sep-25 @ 00:00 - Sep-25 @ 07:00
Wind Visibility
170° at 5 knots Greater than 6 miles
Clouds
  • Scattered at 3,500' AGL
  • Overcast at 14,000' AGL
From Sep-25 @ 07:00 - Sep-25 @ 18:00
Wind Visibility
170° at 10 knots Greater than 6 miles
Clouds
  • Scattered at 2,200' AGL
  • Broken at 12,000' AGL